Kake, AK

1:26 AM AKDT on July 24, 2014 (GMT -0800)
Sitka Rocky Gutierrez (PASI) Elev 20 ft | 57.05 °N, 135.36 °W | Change Station

Current weather conditions updated 33 minutes ago

Overcast
Overcast
57 °F
Feels Like 57 °F
N
0
Wind Variable Wind from North

Today is forecast to be Cooler than yesterday. Chance of afternoon showers.

Today
High -- | Low -- °F
--% Chance of Precip.
Yesterday
High -- | Low -- °F
Precip. -- in
4:39 AM 9:23 PM
Waning Crescent, 6% visible
Pressure 29.95 in
Visibility 10.0 miles
Clouds Few 2600 ft
Overcast 7000 ft
Dew Point 51 °F
Humidity 81%
Rainfall 0.00 in
Snow Depth Not available.
UV 0 out of 12
Pollen Not available.
Air Quality Not available.
Flu Activity Not available.
METAR PASI 240853Z 00000KT 10SM FEW026 OVC070 14/11 A2994 RMK AO2 SLP140 T01390106 401670133 56009

More Conditions Fewer Conditions

Pressure 29.95 in
Visibility 10.0 miles
Clouds Few 2600 ft
Overcast 7000 ft
Dew Point 51 °F
Humidity 81%
Rainfall 0.00 in
Snow Depth Not available.
UV 0 out of 12
Pollen Not available.
Air Quality Not available.
Flu Activity Not available.
METAR PASI 240853Z 00000KT 10SM FEW026 OVC070 14/11 A2994 RMK AO2 SLP140 T01390106 401670133 56009

More Conditions Fewer Conditions

10-Day Weather Forecast

Almanac

Astronomy

Jul. 24, 2014 Rise Set
Actual Time 4:39 AM AKDT 9:23 PM AKDT
Civil Twilight 3:45 AM AKDT 10:17 PM AKDT
Nautical Twilight 2:07 AM AKDT 11:52 PM AKDT
Astronomical Twilight Sun does not rise Sun does not rise
Moon 3:00 AM AKDT 7:35 PM AKDT
Length of Visible Light 18h 32m
Length of Day
16h 43m
Tomorrow will be 3m 42s shorter.
Waning Crescent, 6% of the Moon is Illuminated
Today
Waning Crescent
Jul 26
New
Aug 3
First Quarter
Aug 10
Full
Aug 17
Last Quarter

Today's Extremes

State Highs State Lows

Community

WunderPhotos

Upload Photos

1,736,950 photos uploaded!

Nearby

Snow Depth

Station Depth Elevation
Long Lake 0 in 820 ft
Upper Tsaina River 0 in 1750 ft
Moraine 0 in 2100 ft
Grandview 0 in 1100 ft
Grouse Creek Divide 0 in 700 ft

Earthquake Activity

City Distance Mag. Time & Date
No recent earthquake activity has been reported nearby.
Minimum magnitude displayed is 2.5.

Coastal Water Temperatures

Place Temperature
No Stations Reporting

Nearby Weather Stations

Station Location Temp. Dew Point Humidity Wind Precip. Elev Updated Type
RAWS KAKE AK, Kake, AK 51 °F 50 °F 97% NNE  at  1 mph 0.00 in / hr 399 ft 12:55 AM AKDT MADIS
MARITIME , Kake, AK 54 °F - - WSW  at  13 mph 0.00 in / hr 22 ft 12:00 AM AKDT MADIS

Show More Stations Show Fewer Stations